createdAt,value
2022-08-31T00:02:04.150Z,64.10
2022-08-31T00:04:33.053Z,63.75
2022-08-31T00:07:01.362Z,63.56
2022-08-31T00:09:32.921Z,63.41
2022-08-31T00:12:01.691Z,63.34
2022-08-31T00:14:29.991Z,63.38
2022-08-31T00:16:58.397Z,63.13
2022-08-31T00:19:26.715Z,62.93
2022-08-31T00:21:54.991Z,62.95
2022-08-31T00:24:23.427Z,62.71
2022-08-31T00:26:53.085Z,62.66
2022-08-31T00:29:21.570Z,62.50
2022-08-31T00:31:49.942Z,62.32
2022-08-31T00:34:18.264Z,62.08
2022-08-31T00:36:47.387Z,61.76
2022-08-31T00:39:15.844Z,61.76
2022-08-31T00:41:44.376Z,61.84
2022-08-31T00:44:14.035Z,61.63
2022-08-31T00:46:44.837Z,61.47
2022-08-31T00:49:18.928Z,61.39
2022-08-31T00:51:51.977Z,61.28
2022-08-31T00:54:26.835Z,61.20
2022-08-31T00:56:55.651Z,60.94
2022-08-31T00:59:26.785Z,61.05
2022-08-31T01:01:55.747Z,61.00
2022-08-31T01:04:24.617Z,60.80
2022-08-31T01:06:53.614Z,60.72
2022-08-31T01:09:24.941Z,60.70
2022-08-31T01:11:53.324Z,60.47
2022-08-31T01:14:22.140Z,60.38
2022-08-31T01:16:55.738Z,60.37
2022-08-31T01:19:34.181Z,60.38
2022-08-31T01:22:13.993Z,60.50
2022-08-31T01:24:47.712Z,60.12
2022-08-31T01:27:23.405Z,60.07
2022-08-31T01:29:51.755Z,60.14
2022-08-31T01:32:20.010Z,60.52
2022-08-31T01:34:48.276Z,60.33
2022-08-31T01:37:17.298Z,60.26
2022-08-31T01:39:46.961Z,60.19
2022-08-31T01:42:15.201Z,59.94
2022-08-31T01:44:43.524Z,59.91
2022-08-31T01:47:12.371Z,59.88
2022-08-31T01:49:40.888Z,59.83
2022-08-31T01:52:09.891Z,59.83
2022-08-31T01:54:38.202Z,60.00
2022-08-31T01:57:10.543Z,59.94
2022-08-31T02:00:01.666Z,60.01
2022-08-31T02:02:47.196Z,60.17
2022-08-31T02:05:16.089Z,60.03
2022-08-31T02:07:46.591Z,59.88
2022-08-31T02:10:15.842Z,60.05
2022-08-31T02:12:45.627Z,60.03
2022-08-31T02:15:14.347Z,59.92
2022-08-31T02:17:42.705Z,59.72
2022-08-31T02:20:15.400Z,59.60
2022-08-31T02:22:44.585Z,59.80
2022-08-31T02:25:13.071Z,59.93
2022-08-31T02:27:41.827Z,60.09
2022-08-31T02:30:16.557Z,60.19
2022-08-31T02:32:46.043Z,60.11
2022-08-31T02:35:14.633Z,60.00
2022-08-31T02:37:43.328Z,60.32
2022-08-31T02:40:13.989Z,60.25
2022-08-31T02:42:53.516Z,60.14
2022-08-31T02:45:26.516Z,60.55
2022-08-31T02:48:00.468Z,60.45
2022-08-31T02:50:52.062Z,60.51
2022-08-31T02:53:23.442Z,60.66
2022-08-31T02:55:52.254Z,60.59
2022-08-31T02:58:24.119Z,60.70
2022-08-31T03:00:54.560Z,60.61
2022-08-31T03:03:23.343Z,60.99
2022-08-31T03:05:52.215Z,61.09
2022-08-31T03:08:20.667Z,60.90
2022-08-31T03:10:51.516Z,60.79
2022-08-31T03:13:19.982Z,60.96
2022-08-31T03:15:48.733Z,61.21
2022-08-31T03:18:19.465Z,60.94
2022-08-31T03:20:48.199Z,61.07
2022-08-31T03:23:16.647Z,61.11
2022-08-31T03:25:45.095Z,61.35
2022-08-31T03:28:14.019Z,61.16
2022-08-31T03:30:46.747Z,60.92
2022-08-31T03:33:15.320Z,61.22
2022-08-31T03:35:46.147Z,61.13
2022-08-31T03:38:16.950Z,61.26
2022-08-31T03:40:46.178Z,61.40
2022-08-31T03:43:14.987Z,61.26
2022-08-31T03:45:45.158Z,61.22
2022-08-31T03:48:13.901Z,61.21
2022-08-31T03:50:46.684Z,61.33
2022-08-31T03:53:22.870Z,61.38
2022-08-31T03:56:00.985Z,61.75
2022-08-31T03:58:32.595Z,61.49
2022-08-31T04:01:02.104Z,61.47
2022-08-31T04:03:50.317Z,61.78
2022-08-31T04:06:38.561Z,61.81
2022-08-31T04:09:26.690Z,61.62
2022-08-31T04:12:16.030Z,61.70
2022-08-31T04:15:20.546Z,61.76
2022-08-31T04:17:56.987Z,61.47
2022-08-31T04:20:45.759Z,61.75
2022-08-31T04:23:15.544Z,61.63
2022-08-31T04:25:49.139Z,61.38
2022-08-31T04:28:17.473Z,61.40
2022-08-31T04:30:48.452Z,61.32
2022-08-31T04:33:18.221Z,61.29
2022-08-31T04:35:46.902Z,61.12
2022-08-31T04:38:16.644Z,61.04
2022-08-31T04:40:47.164Z,61.01
2022-08-31T04:43:15.763Z,60.80
2022-08-31T04:45:46.082Z,60.46
2022-08-31T04:48:15.186Z,60.64
2022-08-31T04:50:44.528Z,60.59
2022-08-31T04:53:13.111Z,60.51
2022-08-31T04:55:44.555Z,60.33
2022-08-31T04:58:15.251Z,60.06
2022-08-31T05:00:44.555Z,60.17
2022-08-31T05:03:15.734Z,60.24
2022-08-31T05:05:46.752Z,59.70
2022-08-31T05:08:15.164Z,59.38
2022-08-31T05:10:48.517Z,58.95
2022-08-31T05:13:17.034Z,58.56
2022-08-31T05:15:46.388Z,58.07
2022-08-31T05:18:21.165Z,58.16
2022-08-31T05:20:56.002Z,57.74
2022-08-31T05:23:24.659Z,57.68
2022-08-31T05:25:54.372Z,57.62
2022-08-31T05:28:23.565Z,57.00
2022-08-31T05:30:52.073Z,56.28
2022-08-31T05:33:45.053Z,55.88
2022-08-31T05:36:16.198Z,55.49
2022-08-31T05:38:45.790Z,55.18
2022-08-31T05:41:16.932Z,54.77
2022-08-31T05:43:45.448Z,54.03
2022-08-31T05:46:16.170Z,54.05
2022-08-31T05:48:49.119Z,54.12
2022-08-31T05:51:19.942Z,53.60
2022-08-31T05:53:48.620Z,53.55
2022-08-31T05:56:23.408Z,53.07
2022-08-31T05:58:55.024Z,53.63
2022-08-31T06:01:30.325Z,53.12
2022-08-31T06:04:20.481Z,53.31
2022-08-31T06:06:48.965Z,52.92
2022-08-31T06:09:21.529Z,52.72
2022-08-31T06:11:54.080Z,52.79
2022-08-31T06:14:23.836Z,52.45
2022-08-31T06:16:54.192Z,52.54
2022-08-31T06:19:24.121Z,51.90
2022-08-31T06:21:52.630Z,51.59
2022-08-31T06:24:26.916Z,51.51
2022-08-31T06:27:00.034Z,51.06
2022-08-31T06:29:32.322Z,51.09
2022-08-31T06:32:08.005Z,51.10
2022-08-31T06:34:40.778Z,50.52
2022-08-31T06:37:18.304Z,51.46
2022-08-31T06:40:02.960Z,51.41
2022-08-31T06:42:44.063Z,50.79
2022-08-31T06:45:34.367Z,50.51
2022-08-31T06:48:21.302Z,50.26
2022-08-31T06:50:57.959Z,50.65
2022-08-31T06:53:27.243Z,50.13
2022-08-31T06:56:21.780Z,49.66
2022-08-31T06:59:15.020Z,49.62
2022-08-31T07:01:52.473Z,49.77
2022-08-31T07:04:26.264Z,49.56
2022-08-31T07:06:55.343Z,49.47
2022-08-31T07:09:23.834Z,49.48
2022-08-31T07:11:53.867Z,49.12
2022-08-31T07:14:26.395Z,49.12
2022-08-31T07:16:59.099Z,48.94
2022-08-31T07:19:28.207Z,48.74
2022-08-31T07:22:00.388Z,48.58
2022-08-31T07:24:31.577Z,48.75
2022-08-31T07:27:04.285Z,48.84
2022-08-31T07:29:45.740Z,48.63
2022-08-31T07:32:18.287Z,48.67
2022-08-31T07:34:50.767Z,48.24
2022-08-31T07:37:51.459Z,47.73
2022-08-31T07:40:42.494Z,47.72
2022-08-31T07:43:13.138Z,47.58
2022-08-31T07:45:43.966Z,46.98
2022-08-31T07:48:16.139Z,46.99
2022-08-31T07:51:15.107Z,46.25
2022-08-31T07:54:04.657Z,45.99
2022-08-31T07:56:43.365Z,46.16
2022-08-31T07:59:15.093Z,46.27
2022-08-31T08:01:47.090Z,46.42
2022-08-31T08:04:25.424Z,47.10
2022-08-31T08:07:05.963Z,47.48
2022-08-31T08:09:55.615Z,47.11
2022-08-31T08:13:00.787Z,46.68
2022-08-31T08:15:57.507Z,45.09
2022-08-31T08:18:53.442Z,44.22
2022-08-31T08:21:27.885Z,44.39
2022-08-31T08:23:56.843Z,43.56
2022-08-31T08:26:34.142Z,42.95
2022-08-31T08:29:08.428Z,42.60
2022-08-31T08:31:46.196Z,42.50
2022-08-31T08:34:16.063Z,43.12
2022-08-31T08:36:45.214Z,43.38
2022-08-31T08:39:13.747Z,42.30
2022-08-31T08:41:57.439Z,42.55
2022-08-31T08:44:29.324Z,42.32
2022-08-31T08:47:02.355Z,42.14
2022-08-31T08:49:49.843Z,42.13
2022-08-31T08:52:27.609Z,41.08
2022-08-31T08:55:01.051Z,40.96
2022-08-31T08:57:34.592Z,40.33
2022-08-31T09:00:11.118Z,41.55
2022-08-31T09:02:49.864Z,41.39
2022-08-31T09:05:55.009Z,40.85
2022-08-31T09:09:08.820Z,40.65
2022-08-31T09:11:56.195Z,40.91
2022-08-31T09:14:49.718Z,40.25
2022-08-31T09:17:37.948Z,40.39
2022-08-31T09:20:09.229Z,40.08
2022-08-31T09:22:50.098Z,40.06
2022-08-31T09:25:28.448Z,40.41
2022-08-31T09:28:16.414Z,40.47
2022-08-31T09:30:52.823Z,40.56
2022-08-31T09:33:25.040Z,40.45
2022-08-31T09:35:56.846Z,40.23
2022-08-31T09:38:33.014Z,38.98
2022-08-31T09:41:03.658Z,39.81
2022-08-31T09:43:38.495Z,39.74
2022-08-31T09:46:11.094Z,40.08
2022-08-31T09:48:51.441Z,40.17
2022-08-31T09:51:28.197Z,40.50
2022-08-31T09:54:22.652Z,40.47
2022-08-31T09:56:58.585Z,40.66
2022-08-31T09:59:38.581Z,41.81
2022-08-31T10:02:12.923Z,41.37
2022-08-31T10:04:52.312Z,41.96
2022-08-31T10:07:37.696Z,40.95
2022-08-31T10:10:29.872Z,40.19
2022-08-31T10:13:05.260Z,40.40
2022-08-31T10:15:42.059Z,40.46
2022-08-31T10:18:17.148Z,39.25
2022-08-31T10:20:51.720Z,39.00
2022-08-31T10:23:33.312Z,39.48
2022-08-31T10:26:11.498Z,40.12
2022-08-31T10:28:50.877Z,39.19
2022-08-31T10:31:25.070Z,39.40
2022-08-31T10:34:17.974Z,39.03
2022-08-31T10:36:50.150Z,39.07
2022-08-31T10:39:29.660Z,38.69
2022-08-31T10:42:05.359Z,39.20
2022-08-31T10:44:40.556Z,40.43
2022-08-31T10:47:21.562Z,40.17
2022-08-31T10:50:04.655Z,40.09
2022-08-31T10:52:38.280Z,39.82
2022-08-31T10:55:30.034Z,39.71
2022-08-31T10:58:21.140Z,39.74
2022-08-31T11:00:55.641Z,39.47
2022-08-31T11:03:49.826Z,41.70
2022-08-31T11:06:24.933Z,41.28
2022-08-31T11:09:01.227Z,40.74
2022-08-31T11:11:42.478Z,40.82
2022-08-31T11:14:44.971Z,40.84
2022-08-31T11:17:43.969Z,40.51
2022-08-31T11:20:39.916Z,40.47
2022-08-31T11:23:42.192Z,41.06
2022-08-31T11:26:46.225Z,41.64
2022-08-31T11:29:31.136Z,43.26
2022-08-31T11:32:07.297Z,41.83
2022-08-31T11:34:48.847Z,42.25
2022-08-31T11:37:55.530Z,42.57
2022-08-31T11:41:10.904Z,45.14
2022-08-31T11:43:53.843Z,44.83
2022-08-31T11:47:06.836Z,44.16
2022-08-31T11:49:44.288Z,43.88
2022-08-31T11:52:47.017Z,43.53
2022-08-31T11:55:30.625Z,43.65
2022-08-31T11:58:31.679Z,44.54
2022-08-31T12:01:09.380Z,43.91
2022-08-31T12:03:52.564Z,43.43
2022-08-31T12:07:11.097Z,42.29
2022-08-31T12:10:32.479Z,43.02
2022-08-31T12:13:30.970Z,42.83
2022-08-31T12:16:30.032Z,43.91
2022-08-31T12:19:44.630Z,44.65
2022-08-31T12:23:31.324Z,43.07
2022-08-31T12:26:24.745Z,43.12
2022-08-31T12:29:25.111Z,42.38
2022-08-31T12:32:32.777Z,42.04
2022-08-31T12:35:13.157Z,42.65
2022-08-31T12:37:42.227Z,42.43
2022-08-31T12:40:19.399Z,41.25
2022-08-31T12:42:57.267Z,41.62
2022-08-31T12:46:15.820Z,41.70
2022-08-31T12:49:07.894Z,41.20
2022-08-31T12:51:45.661Z,40.87
2022-08-31T12:54:52.337Z,40.15
2022-08-31T12:57:42.485Z,40.26
2022-08-31T13:00:18.028Z,40.50
2022-08-31T13:02:51.064Z,40.23
2022-08-31T13:05:23.930Z,40.19
2022-08-31T13:07:54.676Z,40.38
2022-08-31T13:10:32.541Z,39.69
2022-08-31T13:13:04.483Z,40.49
2022-08-31T13:15:39.598Z,39.85
2022-08-31T13:18:13.290Z,40.67
2022-08-31T13:20:44.349Z,40.43
2022-08-31T13:23:28.616Z,40.35
2022-08-31T13:26:19.871Z,39.90
2022-08-31T13:28:53.912Z,40.00
2022-08-31T13:31:25.811Z,39.80
2022-08-31T13:33:56.890Z,39.53
2022-08-31T13:36:32.822Z,39.13
2022-08-31T13:39:08.706Z,38.55
2022-08-31T13:41:40.174Z,40.09
2022-08-31T13:44:13.162Z,39.86
2022-08-31T13:47:00.213Z,40.56
2022-08-31T13:49:35.561Z,39.95
2022-08-31T13:52:06.299Z,39.50
2022-08-31T13:54:37.241Z,39.48
2022-08-31T13:57:22.616Z,39.05
2022-08-31T13:59:51.044Z,38.81
2022-08-31T14:02:37.205Z,38.42
2022-08-31T14:05:10.020Z,38.48
2022-08-31T14:07:57.896Z,38.35
2022-08-31T14:10:35.093Z,38.69
2022-08-31T14:13:12.030Z,38.56
2022-08-31T14:15:50.326Z,38.77
2022-08-31T14:18:27.330Z,38.94
2022-08-31T14:21:28.114Z,39.09
2022-08-31T14:24:01.266Z,39.21
2022-08-31T14:26:34.727Z,38.42
2022-08-31T14:29:10.560Z,38.63
2022-08-31T14:31:52.306Z,39.09
2022-08-31T14:34:25.881Z,38.98
2022-08-31T14:37:02.130Z,39.11
2022-08-31T14:39:33.031Z,38.05
2022-08-31T14:42:07.383Z,38.28
2022-08-31T14:44:39.526Z,38.24
2022-08-31T14:47:09.587Z,37.37
2022-08-31T14:49:39.935Z,38.01
2022-08-31T14:52:09.531Z,37.95
2022-08-31T14:54:38.230Z,38.10
2022-08-31T14:57:12.731Z,38.69
2022-08-31T14:59:44.697Z,38.83
2022-08-31T15:02:16.457Z,38.99
2022-08-31T15:04:46.016Z,38.63
2022-08-31T15:07:15.882Z,38.99
2022-08-31T15:09:46.882Z,39.58
2022-08-31T15:12:18.060Z,38.24
2022-08-31T15:14:47.391Z,37.95
2022-08-31T15:17:19.800Z,37.78
2022-08-31T15:19:55.145Z,38.17
2022-08-31T15:22:25.652Z,37.45
2022-08-31T15:24:54.018Z,37.47
2022-08-31T15:27:25.542Z,37.63
2022-08-31T15:30:02.564Z,37.30
2022-08-31T15:32:31.549Z,36.51
2022-08-31T15:35:00.249Z,37.61
2022-08-31T15:37:32.668Z,37.19
2022-08-31T15:40:04.033Z,37.48
2022-08-31T15:42:39.898Z,37.59
2022-08-31T15:45:10.211Z,37.26
2022-08-31T15:47:59.183Z,36.97
2022-08-31T15:50:31.511Z,37.53
2022-08-31T15:53:09.005Z,37.28
2022-08-31T15:55:40.693Z,36.98
2022-08-31T15:58:12.642Z,37.35
2022-08-31T16:00:42.052Z,37.46
2022-08-31T16:03:11.381Z,37.94
2022-08-31T16:05:39.927Z,37.80
2022-08-31T16:08:11.253Z,38.24
2022-08-31T16:10:49.286Z,38.16
2022-08-31T16:13:19.383Z,38.14
2022-08-31T16:15:52.228Z,38.08
2022-08-31T16:18:22.435Z,38.23
2022-08-31T16:20:51.851Z,38.67
2022-08-31T16:23:22.102Z,38.22
2022-08-31T16:25:50.499Z,38.57
2022-08-31T16:28:21.861Z,38.63
2022-08-31T16:30:51.853Z,38.36
2022-08-31T16:33:20.951Z,38.65
2022-08-31T16:35:49.717Z,38.44
2022-08-31T16:38:18.443Z,38.81
2022-08-31T16:40:47.118Z,38.73
2022-08-31T16:43:15.667Z,38.78
2022-08-31T16:45:45.655Z,38.65
2022-08-31T16:48:31.530Z,38.57
2022-08-31T16:51:02.617Z,38.73
2022-08-31T16:53:32.035Z,38.13
2022-08-31T16:56:00.593Z,38.40
2022-08-31T16:58:50.718Z,38.27
2022-08-31T17:01:23.193Z,37.92
2022-08-31T17:03:55.843Z,38.27
2022-08-31T17:06:25.163Z,37.94
2022-08-31T17:08:55.402Z,38.28
2022-08-31T17:11:32.131Z,38.18
2022-08-31T17:14:03.128Z,38.08
2022-08-31T17:16:37.153Z,37.63
2022-08-31T17:19:11.328Z,38.25
2022-08-31T17:21:49.687Z,38.16
2022-08-31T17:24:21.549Z,38.43
2022-08-31T17:26:52.091Z,38.28
2022-08-31T17:29:22.458Z,38.16
2022-08-31T17:31:53.607Z,38.18
2022-08-31T17:34:28.264Z,38.05
2022-08-31T17:36:59.889Z,37.83
2022-08-31T17:39:29.397Z,38.17
2022-08-31T17:41:58.070Z,38.37
2022-08-31T17:44:30.979Z,38.50
2022-08-31T17:47:03.610Z,38.40
2022-08-31T17:49:37.934Z,38.45
2022-08-31T17:52:08.455Z,38.46
2022-08-31T17:54:42.077Z,38.76
2022-08-31T17:57:14.024Z,38.67
2022-08-31T17:59:46.669Z,38.56
2022-08-31T18:02:18.971Z,38.49
2022-08-31T18:04:48.887Z,38.22
2022-08-31T18:07:17.507Z,38.86
2022-08-31T18:09:46.974Z,38.53
2022-08-31T18:12:18.087Z,38.69
2022-08-31T18:14:46.516Z,38.87
2022-08-31T18:17:17.147Z,38.77
2022-08-31T18:19:45.885Z,38.62
2022-08-31T18:22:15.236Z,38.69
2022-08-31T18:24:44.397Z,38.44
2022-08-31T18:27:16.179Z,38.83
2022-08-31T18:29:45.774Z,39.08
2022-08-31T18:32:15.941Z,38.87
2022-08-31T18:34:48.613Z,39.42
2022-08-31T18:37:22.174Z,38.92
2022-08-31T18:40:08.820Z,39.22
2022-08-31T18:42:56.981Z,39.12
2022-08-31T18:45:26.342Z,39.46
2022-08-31T18:50:48.408Z,39.93
2022-08-31T18:53:28.624Z,39.93
2022-08-31T18:56:07.990Z,40.12
2022-08-31T18:58:38.342Z,39.96
2022-08-31T19:01:10.331Z,40.10
2022-08-31T19:03:41.140Z,40.68
2022-08-31T19:06:11.179Z,40.93
2022-08-31T19:08:39.721Z,41.87
2022-08-31T19:11:08.943Z,42.50
2022-08-31T19:13:38.778Z,43.21
2022-08-31T19:16:15.594Z,43.60
2022-08-31T19:18:48.418Z,44.26
2022-08-31T19:21:21.595Z,44.85
2022-08-31T19:23:51.771Z,45.63
2022-08-31T19:26:30.032Z,46.53
2022-08-31T19:28:59.836Z,47.28
2022-08-31T19:31:30.139Z,47.61
2022-08-31T19:33:59.936Z,48.16
2022-08-31T19:36:28.404Z,48.78
2022-08-31T19:38:57.501Z,49.40
2022-08-31T19:41:27.731Z,50.58
2022-08-31T19:44:07.594Z,50.83
2022-08-31T19:46:37.825Z,51.41
2022-08-31T19:49:09.587Z,51.86
2022-08-31T19:51:40.368Z,51.83
2022-08-31T19:54:11.485Z,52.54
2022-08-31T19:56:42.889Z,52.94
2022-08-31T19:59:12.117Z,53.64
2022-08-31T20:01:41.608Z,53.51
2022-08-31T20:04:16.683Z,53.93
2022-08-31T20:06:46.947Z,54.26
2022-08-31T20:09:15.631Z,54.95
2022-08-31T20:11:47.500Z,54.83
2022-08-31T20:14:17.111Z,54.93
2022-08-31T20:16:46.714Z,55.14
2022-08-31T20:19:20.715Z,55.62
2022-08-31T20:21:54.175Z,55.83
2022-08-31T20:24:25.509Z,56.11
2022-08-31T20:27:01.723Z,56.13
2022-08-31T20:29:38.235Z,56.86
2022-08-31T20:32:08.090Z,57.10
2022-08-31T20:34:38.568Z,57.19
2022-08-31T20:37:07.531Z,57.37
2022-08-31T20:39:37.268Z,57.53
2022-08-31T20:42:07.855Z,57.71
2022-08-31T20:44:38.109Z,57.96
2022-08-31T20:47:27.089Z,58.35
2022-08-31T20:50:01.222Z,58.34
2022-08-31T20:52:32.034Z,58.49
2022-08-31T20:55:03.434Z,58.80
2022-08-31T20:57:33.374Z,58.82
2022-08-31T21:00:04.127Z,58.73
2022-08-31T21:02:33.501Z,58.82
2022-08-31T21:05:36.446Z,58.93
2022-08-31T21:07:53.240Z,58.48
2022-08-31T21:10:36.571Z,58.26
2022-08-31T21:13:10.706Z,58.33
2022-08-31T21:15:44.688Z,58.08
2022-08-31T21:18:17.358Z,58.00
2022-08-31T21:20:48.494Z,57.82
2022-08-31T21:23:17.332Z,57.76
2022-08-31T21:25:47.326Z,57.94
2022-08-31T21:28:18.381Z,57.74
2022-08-31T21:30:49.538Z,57.53
2022-08-31T21:33:18.354Z,57.39
2022-08-31T21:35:48.405Z,57.54
2022-08-31T21:38:18.238Z,57.69
2022-08-31T21:40:51.209Z,57.40
2022-08-31T21:43:20.070Z,57.45
2022-08-31T21:45:55.007Z,57.53
2022-08-31T21:48:23.902Z,57.45
2022-08-31T21:50:56.099Z,57.59
2022-08-31T21:53:27.255Z,57.36
2022-08-31T21:55:55.669Z,57.17
2022-08-31T21:58:24.070Z,57.48
2022-08-31T22:00:52.629Z,57.62
2022-08-31T22:03:22.482Z,57.51
2022-08-31T22:05:50.982Z,57.50
2022-08-31T22:08:21.084Z,57.82
2022-08-31T22:10:50.149Z,57.58
2022-08-31T22:13:19.701Z,57.60
2022-08-31T22:15:48.277Z,57.68
2022-08-31T22:21:07.319Z,57.69
2022-08-31T22:23:37.379Z,57.94
2022-08-31T22:26:05.744Z,58.26
2022-08-31T22:28:34.824Z,58.24
2022-08-31T22:31:04.871Z,58.49
2022-08-31T22:33:33.279Z,58.83
2022-08-31T22:36:01.834Z,58.67
2022-08-31T22:38:30.214Z,58.70
2022-08-31T22:41:04.350Z,58.59
2022-08-31T22:43:32.820Z,59.09
2022-08-31T22:46:01.787Z,59.00
2022-08-31T22:48:30.364Z,59.07
2022-08-31T22:50:58.727Z,58.86
2022-08-31T22:53:27.170Z,59.01
2022-08-31T22:55:55.534Z,59.10
2022-08-31T22:58:25.310Z,59.04
2022-08-31T23:00:53.601Z,59.08
2022-08-31T23:03:22.270Z,59.02
2022-08-31T23:05:52.049Z,59.07
2022-08-31T23:08:22.364Z,58.95
2022-08-31T23:10:50.815Z,59.26
2022-08-31T23:13:39.114Z,59.43
2022-08-31T23:16:09.373Z,59.70
2022-08-31T23:18:41.603Z,59.97
2022-08-31T23:21:09.910Z,59.68
2022-08-31T23:23:38.142Z,60.02
2022-08-31T23:26:09.543Z,60.25
2022-08-31T23:28:38.745Z,60.42
2022-08-31T23:31:09.004Z,60.30
2022-08-31T23:33:37.881Z,60.40
2022-08-31T23:36:07.469Z,60.48
2022-08-31T23:38:37.948Z,60.74
2022-08-31T23:41:06.577Z,60.58
2022-08-31T23:43:42.074Z,60.46
2022-08-31T23:46:12.393Z,60.39
2022-08-31T23:48:41.268Z,60.71
2022-08-31T23:51:10.531Z,60.77
2022-08-31T23:53:39.367Z,60.83
2022-08-31T23:56:09.673Z,60.89
2022-08-31T23:58:39.984Z,61.13
